Terminal Aerodrome Forecast
Issued by NWS North Platte, NE

Home | Current Version | Previous Version | Graphics & Text | Print | Product List | Glossary On
Versions: 1 2 3 4 5 6 7 8 9 10 11 12 13 14 15 16
000
FTUS43 KLBF 281208 AAA
TAFVTN
TAF AMD
KVTN 281208Z 2812/0112 33005KT P6SM VCFG BKN008
      TEMPO 2813/2815 FEW008 BKN100
     FM281500 31008KT P6SM BKN100
     FM010500 29007KT P6SM SCT250=

USA.gov is the U.S. government's official web portal to all federal, state and local government web resources and services.